Tanais Express — V3OQ8 — position and weather

sailwx.info

Track history (hours):
 
Tides and Currents Weather Stations Pressure Air Temp Water Temp Dewpoint Dewpoint Depression Visibility Wind Speed Wind Dir Waves Ship Positions

Tanais Express

Last reported at 2014-Oct-23 20:14 UTC. Time now 2014-Oct-30 13:45 UTC.
Position N 39°02' E 002°46'.

Length 159 m; draft 9.9 m.

Type: Cargo ship. MMSI: 312655000.

Date/timePositionNaut miles runAvg speedWind from/ knotsBaromVisibWave heightAir tempDewpointWater temp
2014-Oct-23 20:14N 39°02' E 002°46'  
2014-Oct-14 19:21N 46°20' E 030°55'1110.1
2014-Oct-14 18:17N 46°31' E 030°55'40 3.3
2014-Oct-14 06:12N 46°37' E 031°53'5 8.4
2014-Oct-14 05:33N 46°42' E 031°56'7 7.4
2014-Oct-14 04:33N 46°49' E 031°55'2 1.7
2014-Oct-14 03:32N 46°50' E 031°57'0 0.0
2014-Oct-14 02:32N 46°50' E 031°57'0 0.0
2014-Oct-14 01:32N 46°50' E 031°57'0 0.0
2014-Oct-14 00:32N 46°50' E 031°57'0 0.0
2014-Oct-13 23:32N 46°50' E 031°57'0 0.0
2014-Oct-13 22:32N 46°50' E 031°57'0 0.0
2014-Oct-13 21:32N 46°50' E 031°57'0 0.0
2014-Oct-13 20:32N 46°50' E 031°57'  
Track history (hours):
 
Tides and Currents Weather Stations Pressure Air Temp Water Temp Dewpoint Dewpoint Depression Visibility Wind Speed Wind Dir Waves Ship Positions

Tanais Express

Last reported at 2014-Oct-23 20:14 UTC. Time now 2014-Oct-30 13:45 UTC.
Position N 39°02' E 002°46'.

Length 159 m; draft 9.9 m.

Type: Cargo ship. MMSI: 312655000.

Date/timePositionNaut miles runAvg speedWind from/ knotsBaromVisibWave heightAir tempDewpointWater temp
2014-Oct-23 20:14N 39°02' E 002°46'  
2014-Oct-14 19:21N 46°20' E 030°55'1110.1
2014-Oct-14 18:17N 46°31' E 030°55'40 3.3
2014-Oct-14 06:12N 46°37' E 031°53'5 8.4
2014-Oct-14 05:33N 46°42' E 031°56'7 7.4
2014-Oct-14 04:33N 46°49' E 031°55'2 1.7
2014-Oct-14 03:32N 46°50' E 031°57'0 0.0
2014-Oct-14 02:32N 46°50' E 031°57'0 0.0
2014-Oct-14 01:32N 46°50' E 031°57'0 0.0
2014-Oct-14 00:32N 46°50' E 031°57'0 0.0
2014-Oct-13 23:32N 46°50' E 031°57'0 0.0
2014-Oct-13 22:32N 46°50' E 031°57'0 0.0
2014-Oct-13 21:32N 46°50' E 031°57'0 0.0
2014-Oct-13 20:32N 46°50' E 031°57'  

Dump ship's entire track history